createdAt,value
2022-10-26T00:00:50.208Z,81.13
2022-10-26T00:03:58.216Z,81.24
2022-10-26T00:07:03.664Z,81.38
2022-10-26T00:10:11.197Z,81.36
2022-10-26T00:13:16.709Z,81.35
2022-10-26T00:16:24.567Z,81.39
2022-10-26T00:19:30.367Z,81.43
2022-10-26T00:22:35.918Z,81.73
2022-10-26T00:25:41.567Z,81.78
2022-10-26T00:28:47.060Z,81.76
2022-10-26T00:31:52.668Z,81.65
2022-10-26T00:35:06.083Z,81.72
2022-10-26T00:38:21.583Z,81.77
2022-10-26T00:41:30.249Z,81.85
2022-10-26T00:45:01.808Z,81.84
2022-10-26T00:48:12.945Z,81.88
2022-10-26T00:51:25.597Z,82.00
2022-10-26T00:54:31.315Z,81.83
2022-10-26T00:57:39.049Z,81.91
2022-10-26T01:00:45.302Z,81.91
2022-10-26T01:03:49.654Z,82.02
2022-10-26T01:06:56.344Z,82.10
2022-10-26T01:10:02.674Z,82.02
2022-10-26T01:13:08.864Z,82.08
2022-10-26T01:16:22.581Z,82.07
2022-10-26T01:19:59.744Z,82.23
2022-10-26T01:23:14.713Z,82.19
2022-10-26T01:27:02.964Z,82.20
2022-10-26T01:30:28.278Z,82.15
2022-10-26T01:33:44.373Z,82.03
2022-10-26T01:36:56.082Z,82.04
2022-10-26T01:40:10.577Z,82.20
2022-10-26T01:43:18.089Z,82.10
2022-10-26T01:46:25.519Z,82.16
2022-10-26T01:49:34.297Z,82.20
2022-10-26T01:52:40.711Z,82.18
2022-10-26T01:55:50.329Z,82.22
2022-10-26T01:59:27.815Z,82.30
2022-10-26T02:02:48.486Z,82.24
2022-10-26T02:06:08.038Z,82.29
2022-10-26T02:09:24.773Z,82.30
2022-10-26T02:12:37.014Z,82.39
2022-10-26T02:15:49.922Z,82.21
2022-10-26T02:19:03.105Z,82.32
2022-10-26T02:22:15.049Z,82.39
2022-10-26T02:25:24.957Z,82.32
2022-10-26T02:28:36.493Z,82.20
2022-10-26T02:31:45.067Z,82.13
2022-10-26T02:34:52.880Z,82.06
2022-10-26T02:38:01.334Z,82.26
2022-10-26T02:41:09.029Z,81.97
2022-10-26T02:44:21.513Z,81.90
2022-10-26T02:47:28.069Z,82.01
2022-10-26T02:50:39.400Z,81.90
2022-10-26T02:53:51.255Z,82.04
2022-10-26T02:57:00.637Z,82.19
2022-10-26T03:00:08.170Z,82.31
2022-10-26T03:03:14.762Z,82.28
2022-10-26T03:06:25.149Z,82.39
2022-10-26T03:09:30.982Z,82.49
2022-10-26T03:12:36.529Z,82.57
2022-10-26T03:15:42.715Z,82.69
2022-10-26T03:18:48.141Z,82.61
2022-10-26T03:21:53.588Z,82.80
2022-10-26T03:24:59.103Z,82.83
2022-10-26T03:28:05.989Z,82.75
2022-10-26T03:31:11.568Z,82.71
2022-10-26T03:34:17.016Z,82.72
2022-10-26T03:37:22.461Z,82.67
2022-10-26T03:40:28.010Z,82.73
2022-10-26T03:43:33.430Z,82.58
2022-10-26T03:46:38.904Z,82.40
2022-10-26T03:49:44.354Z,82.52
2022-10-26T03:52:51.365Z,82.65
2022-10-26T03:55:57.091Z,82.68
2022-10-26T03:59:02.947Z,82.69
2022-10-26T04:02:08.396Z,82.45
2022-10-26T04:05:14.395Z,82.59
2022-10-26T04:08:20.037Z,82.44
2022-10-26T04:11:25.554Z,82.53
2022-10-26T04:14:31.104Z,82.66
2022-10-26T04:17:36.653Z,82.76
2022-10-26T04:20:42.940Z,82.65
2022-10-26T04:23:46.913Z,82.66
2022-10-26T04:26:52.379Z,82.59
2022-10-26T04:29:57.929Z,82.61
2022-10-26T04:33:03.409Z,82.61
2022-10-26T04:36:10.720Z,82.56
2022-10-26T04:39:16.527Z,82.47
2022-10-26T04:42:22.073Z,82.42
2022-10-26T04:45:31.125Z,82.67
2022-10-26T04:48:36.858Z,82.61
2022-10-26T04:51:42.307Z,82.51
2022-10-26T04:54:48.059Z,82.62
2022-10-26T04:57:55.984Z,82.60
2022-10-26T05:01:05.395Z,82.50
2022-10-26T05:04:11.059Z,82.44
2022-10-26T05:07:16.606Z,82.56
2022-10-26T05:10:22.158Z,82.60
2022-10-26T05:16:38.272Z,82.50
2022-10-26T05:19:43.720Z,82.58
2022-10-26T05:22:55.006Z,82.78
2022-10-26T05:26:00.478Z,82.78
2022-10-26T05:29:05.972Z,82.83
2022-10-26T05:32:11.446Z,82.78
2022-10-26T05:35:17.329Z,82.75
2022-10-26T05:38:22.991Z,82.85
2022-10-26T05:41:28.738Z,82.83
2022-10-26T05:44:34.156Z,83.09
2022-10-26T05:47:42.316Z,82.94
2022-10-26T05:50:48.191Z,83.00
2022-10-26T05:53:55.619Z,82.84
2022-10-26T05:57:02.293Z,82.77
2022-10-26T06:00:11.597Z,82.80
2022-10-26T06:03:32.651Z,82.74
2022-10-26T06:06:45.259Z,83.03
2022-10-26T06:09:52.345Z,82.91
2022-10-26T06:12:58.941Z,82.96
2022-10-26T06:16:29.351Z,83.00
2022-10-26T06:19:48.418Z,82.88
2022-10-26T06:23:06.356Z,83.04
2022-10-26T06:26:19.226Z,83.05
2022-10-26T06:29:37.850Z,83.01
2022-10-26T06:32:45.541Z,83.08
2022-10-26T06:36:03.382Z,83.01
2022-10-26T06:39:12.128Z,82.90
2022-10-26T06:42:18.942Z,82.90
2022-10-26T06:45:25.805Z,82.81
2022-10-26T06:48:36.254Z,83.06
2022-10-26T06:51:48.269Z,83.42
2022-10-26T06:54:55.800Z,83.50
2022-10-26T06:58:02.946Z,83.66
2022-10-26T07:01:11.906Z,83.72
2022-10-26T07:04:17.482Z,83.76
2022-10-26T07:07:24.923Z,83.83
2022-10-26T07:10:30.431Z,84.01
2022-10-26T07:13:35.974Z,84.29
2022-10-26T07:16:41.523Z,84.48
2022-10-26T07:19:46.956Z,84.59
2022-10-26T07:22:56.760Z,84.68
2022-10-26T07:26:03.521Z,84.69
2022-10-26T07:29:09.148Z,84.87
2022-10-26T07:32:14.589Z,85.12
2022-10-26T07:35:20.146Z,85.16
2022-10-26T07:38:26.004Z,85.27
2022-10-26T07:41:31.477Z,85.40
2022-10-26T07:44:36.999Z,85.45
2022-10-26T07:47:42.547Z,85.55
2022-10-26T07:50:48.009Z,85.74
2022-10-26T07:53:53.408Z,85.77
2022-10-26T07:56:59.626Z,85.88
2022-10-26T08:00:05.101Z,85.95
2022-10-26T08:03:10.602Z,86.16
2022-10-26T08:06:16.561Z,86.22
2022-10-26T08:09:22.008Z,86.33
2022-10-26T08:12:27.659Z,86.43
2022-10-26T08:15:33.107Z,86.50
2022-10-26T08:18:38.560Z,86.67
2022-10-26T08:21:44.000Z,86.61
2022-10-26T08:24:49.550Z,86.69
2022-10-26T08:27:55.613Z,86.91
2022-10-26T08:31:02.393Z,86.82
2022-10-26T08:34:07.939Z,86.89
2022-10-26T08:37:13.383Z,86.95
2022-10-26T08:40:21.021Z,87.18
2022-10-26T08:43:34.783Z,87.23
2022-10-26T08:46:45.739Z,86.81
2022-10-26T08:49:59.592Z,86.84
2022-10-26T08:53:14.368Z,86.72
2022-10-26T08:56:23.065Z,86.83
2022-10-26T08:59:36.694Z,86.81
2022-10-26T09:02:42.327Z,86.80
2022-10-26T09:06:06.410Z,86.57
2022-10-26T09:09:19.028Z,86.63
2022-10-26T09:12:35.224Z,86.80
2022-10-26T09:15:58.284Z,86.75
2022-10-26T09:19:32.814Z,86.55
2022-10-26T09:22:48.823Z,86.56
2022-10-26T09:26:01.627Z,86.63
2022-10-26T09:29:12.297Z,86.41
2022-10-26T09:32:20.907Z,86.36
2022-10-26T09:38:41.335Z,86.29
2022-10-26T09:41:51.318Z,86.21
2022-10-26T09:44:59.909Z,86.15
2022-10-26T09:48:13.397Z,85.99
2022-10-26T09:51:19.815Z,85.85
2022-10-26T09:54:25.577Z,85.68
2022-10-26T09:57:31.669Z,85.68
2022-10-26T10:00:38.922Z,85.58
2022-10-26T10:03:44.396Z,85.29
2022-10-26T10:06:51.658Z,85.33
2022-10-26T10:10:16.458Z,85.18
2022-10-26T10:13:25.434Z,85.11
2022-10-26T10:16:30.937Z,84.99
2022-10-26T10:19:38.478Z,84.82
2022-10-26T10:22:57.832Z,84.52
2022-10-26T10:26:06.212Z,84.45
2022-10-26T10:29:18.531Z,84.45
2022-10-26T10:32:25.874Z,84.18
2022-10-26T10:35:33.191Z,84.12
2022-10-26T10:38:44.750Z,83.99
2022-10-26T10:41:50.281Z,83.73
2022-10-26T10:44:59.197Z,83.63
2022-10-26T10:48:14.812Z,83.44
2022-10-26T10:51:25.162Z,83.13
2022-10-26T10:54:34.286Z,82.90
2022-10-26T10:57:50.870Z,82.64
2022-10-26T11:00:57.461Z,82.66
2022-10-26T11:04:34.177Z,82.24
2022-10-26T11:07:45.917Z,81.91
2022-10-26T11:10:55.703Z,81.62
2022-10-26T11:14:07.460Z,81.54
2022-10-26T11:17:19.769Z,81.51
2022-10-26T11:20:30.439Z,81.24
2022-10-26T11:23:43.189Z,80.91
2022-10-26T11:26:54.002Z,80.73
2022-10-26T11:30:06.986Z,80.44
2022-10-26T11:33:18.132Z,79.97
2022-10-26T11:36:30.379Z,79.83
2022-10-26T11:39:43.568Z,79.62
2022-10-26T11:42:56.816Z,79.38
2022-10-26T11:46:08.333Z,78.85
2022-10-26T11:49:20.697Z,78.85
2022-10-26T11:52:30.956Z,78.24
2022-10-26T11:55:36.812Z,78.18
2022-10-26T11:58:44.060Z,77.63
2022-10-26T12:01:52.209Z,77.19
2022-10-26T12:05:03.708Z,77.00
2022-10-26T12:08:15.807Z,76.98
2022-10-26T12:11:36.257Z,76.54
2022-10-26T12:14:47.537Z,76.10
2022-10-26T12:18:02.149Z,75.69
2022-10-26T12:21:09.789Z,74.97
2022-10-26T12:24:35.500Z,74.72
2022-10-26T12:27:58.475Z,74.78
2022-10-26T12:31:34.797Z,74.40
2022-10-26T12:35:05.642Z,73.98
2022-10-26T12:38:56.657Z,73.74
2022-10-26T12:42:30.369Z,73.38
2022-10-26T12:45:35.984Z,73.02
2022-10-26T12:48:44.603Z,72.78
2022-10-26T12:51:51.448Z,72.69
2022-10-26T12:55:31.822Z,72.58
2022-10-26T12:59:14.737Z,71.76
2022-10-26T13:02:41.661Z,71.47
2022-10-26T13:06:19.568Z,71.16
2022-10-26T13:09:28.834Z,70.73
2022-10-26T13:12:48.493Z,70.50
2022-10-26T13:15:58.357Z,70.33
2022-10-26T13:19:04.201Z,69.74
2022-10-26T13:22:17.276Z,69.65
2022-10-26T13:25:26.365Z,69.57
2022-10-26T13:28:45.315Z,69.33
2022-10-26T13:31:57.799Z,69.08
2022-10-26T13:35:05.322Z,69.08
2022-10-26T13:38:12.925Z,68.62
2022-10-26T13:41:34.065Z,68.31
2022-10-26T13:44:45.836Z,67.94
2022-10-26T13:47:57.345Z,67.96
2022-10-26T13:51:07.522Z,67.72
2022-10-26T13:54:22.709Z,67.58
2022-10-26T13:57:35.165Z,67.46
2022-10-26T14:00:40.949Z,67.47
2022-10-26T14:03:45.651Z,67.27
2022-10-26T14:06:52.783Z,67.19
2022-10-26T14:09:59.796Z,67.05
2022-10-26T14:13:10.284Z,66.81
2022-10-26T14:16:20.489Z,66.81
2022-10-26T14:19:30.805Z,66.56
2022-10-26T14:22:36.354Z,66.72
2022-10-26T14:25:42.357Z,66.71
2022-10-26T14:28:55.877Z,66.49
2022-10-26T14:32:01.400Z,66.33
2022-10-26T14:35:12.304Z,66.26
2022-10-26T14:38:23.149Z,66.20
2022-10-26T14:41:30.216Z,66.23
2022-10-26T14:44:39.489Z,66.12
2022-10-26T14:47:49.772Z,65.98
2022-10-26T14:51:02.882Z,66.10
2022-10-26T14:54:22.871Z,65.94
2022-10-26T14:57:37.074Z,65.86
2022-10-26T15:00:43.441Z,66.07
2022-10-26T15:03:53.660Z,66.05
2022-10-26T15:07:10.813Z,66.27
2022-10-26T15:10:48.678Z,66.49
2022-10-26T15:13:54.973Z,66.64
2022-10-26T15:17:01.437Z,66.67
2022-10-26T15:20:15.514Z,66.65
2022-10-26T15:23:22.268Z,66.77
2022-10-26T15:26:28.286Z,66.90
2022-10-26T15:29:39.923Z,66.93
2022-10-26T15:32:45.627Z,67.03
2022-10-26T15:35:51.326Z,67.21
2022-10-26T15:38:57.272Z,67.36
2022-10-26T15:42:02.788Z,67.67
2022-10-26T15:45:18.262Z,67.60
2022-10-26T15:48:29.086Z,67.62
2022-10-26T15:51:35.614Z,67.93
2022-10-26T15:54:41.167Z,67.87
2022-10-26T15:57:47.200Z,67.94
2022-10-26T16:00:53.263Z,67.95
2022-10-26T16:03:58.933Z,68.32
2022-10-26T16:07:05.969Z,68.42
2022-10-26T16:10:23.250Z,68.39
2022-10-26T16:13:28.798Z,68.61
2022-10-26T16:16:34.351Z,68.71
2022-10-26T16:19:39.899Z,68.70
2022-10-26T16:22:48.501Z,68.90
2022-10-26T16:25:53.966Z,68.94
2022-10-26T16:28:59.408Z,69.10
2022-10-26T16:32:04.962Z,69.20
2022-10-26T16:35:12.362Z,69.24
2022-10-26T16:38:17.904Z,69.14
2022-10-26T16:44:33.687Z,69.28
2022-10-26T16:47:40.246Z,69.52
2022-10-26T16:50:45.735Z,69.65
2022-10-26T16:53:52.964Z,69.63
2022-10-26T16:56:58.575Z,69.71
2022-10-26T17:00:04.330Z,69.74
2022-10-26T17:03:09.736Z,69.98
2022-10-26T17:06:15.736Z,70.18
2022-10-26T17:09:21.125Z,70.18
2022-10-26T17:15:36.992Z,70.52
2022-10-26T17:18:43.681Z,70.55
2022-10-26T17:21:49.118Z,70.46
2022-10-26T17:24:54.668Z,70.56
2022-10-26T17:28:00.318Z,70.70
2022-10-26T17:31:07.868Z,70.62
2022-10-26T17:34:13.309Z,70.91
2022-10-26T17:37:18.899Z,71.08
2022-10-26T17:40:24.465Z,70.93
2022-10-26T17:43:32.517Z,70.88
2022-10-26T17:46:37.941Z,71.01
2022-10-26T17:49:43.369Z,71.23
2022-10-26T17:52:48.921Z,71.18
2022-10-26T17:56:02.989Z,71.24
2022-10-26T17:59:12.649Z,71.41
2022-10-26T18:02:18.242Z,71.45
2022-10-26T18:05:23.854Z,71.39
2022-10-26T18:08:33.044Z,71.50
2022-10-26T18:11:38.798Z,71.47
2022-10-26T18:14:44.347Z,71.52
2022-10-26T18:17:56.732Z,71.65
2022-10-26T18:21:06.859Z,71.60
2022-10-26T18:24:12.570Z,71.95
2022-10-26T18:27:20.294Z,71.71
2022-10-26T18:30:26.900Z,71.77
2022-10-26T18:33:32.949Z,71.86
2022-10-26T18:36:39.068Z,71.94
2022-10-26T18:39:42.981Z,72.21
2022-10-26T18:42:48.527Z,72.22
2022-10-26T18:45:54.281Z,72.06
2022-10-26T18:49:01.342Z,71.92
2022-10-26T18:52:10.262Z,71.91
2022-10-26T18:55:15.751Z,72.14
2022-10-26T18:58:21.204Z,72.44
2022-10-26T19:01:28.598Z,72.66
2022-10-26T19:04:34.338Z,72.49
2022-10-26T19:07:40.137Z,72.46
2022-10-26T19:10:45.648Z,72.49
2022-10-26T19:13:52.896Z,72.39
2022-10-26T19:16:58.378Z,72.54
2022-10-26T19:20:03.970Z,72.56
2022-10-26T19:23:09.887Z,72.60
2022-10-26T19:26:17.486Z,72.57
2022-10-26T19:29:24.733Z,72.58
2022-10-26T19:32:30.940Z,72.86
2022-10-26T19:38:42.094Z,73.02
2022-10-26T19:41:46.606Z,73.06
2022-10-26T19:44:52.113Z,73.11
2022-10-26T19:47:58.379Z,73.18
2022-10-26T19:51:02.289Z,73.12
2022-10-26T19:54:08.046Z,73.19
2022-10-26T19:57:13.588Z,73.23
2022-10-26T20:00:20.085Z,73.31
2022-10-26T20:03:26.658Z,73.20
2022-10-26T20:06:32.295Z,73.36
2022-10-26T20:09:37.738Z,73.33
2022-10-26T20:12:43.184Z,73.34
2022-10-26T20:15:49.909Z,73.57
2022-10-26T20:18:55.410Z,73.68
2022-10-26T20:22:00.945Z,73.60
2022-10-26T20:25:07.604Z,73.68
2022-10-26T20:28:13.761Z,73.87
2022-10-26T20:31:17.639Z,73.90
2022-10-26T20:34:23.115Z,74.08
2022-10-26T20:37:29.830Z,74.08
2022-10-26T20:40:36.950Z,74.03
2022-10-26T20:43:43.858Z,74.20
2022-10-26T20:46:51.256Z,74.17
2022-10-26T20:49:57.768Z,74.08
2022-10-26T20:53:12.005Z,73.94
2022-10-26T20:56:23.820Z,74.06
2022-10-26T20:59:36.539Z,74.32
2022-10-26T21:02:41.980Z,74.37
2022-10-26T21:05:48.951Z,74.41
2022-10-26T21:08:55.757Z,74.55
2022-10-26T21:12:01.225Z,74.44
2022-10-26T21:15:08.481Z,74.47
2022-10-26T21:18:13.920Z,74.46
2022-10-26T21:21:19.374Z,74.45
2022-10-26T21:24:24.886Z,74.36
2022-10-26T21:27:30.508Z,74.34
2022-10-26T21:30:36.227Z,74.49
2022-10-26T21:33:42.321Z,74.51
2022-10-26T21:36:47.839Z,74.63
2022-10-26T21:39:53.285Z,74.48
2022-10-26T21:42:58.832Z,74.54
2022-10-26T21:46:04.699Z,74.57
2022-10-26T21:49:10.137Z,74.72
2022-10-26T21:52:15.688Z,74.72
2022-10-26T21:55:21.236Z,74.86
2022-10-26T21:58:26.683Z,74.81
2022-10-26T22:01:32.305Z,74.69
2022-10-26T22:04:38.806Z,74.78
2022-10-26T22:07:44.388Z,74.66
2022-10-26T22:10:49.767Z,74.71
2022-10-26T22:13:55.715Z,74.93
2022-10-26T22:17:01.110Z,75.13
2022-10-26T22:20:08.152Z,75.28
2022-10-26T22:23:13.642Z,75.13
2022-10-26T22:26:21.240Z,75.17
2022-10-26T22:29:26.654Z,75.08
2022-10-26T22:32:32.132Z,75.13
2022-10-26T22:35:37.679Z,75.13
2022-10-26T22:38:43.810Z,75.09
2022-10-26T22:41:50.519Z,75.00
2022-10-26T22:44:55.953Z,75.11
2022-10-26T22:48:01.567Z,75.14
2022-10-26T22:51:12.111Z,75.28
2022-10-26T22:54:17.866Z,75.19
2022-10-26T22:57:23.387Z,75.10
2022-10-26T23:00:28.806Z,75.21
2022-10-26T23:03:34.382Z,75.41
2022-10-26T23:06:40.036Z,75.37
2022-10-26T23:09:45.586Z,75.27
2022-10-26T23:12:54.179Z,75.38
2022-10-26T23:16:07.869Z,75.44
2022-10-26T23:19:13.789Z,75.55
2022-10-26T23:22:19.210Z,75.60
2022-10-26T23:25:24.698Z,75.73
2022-10-26T23:28:30.350Z,75.91
2022-10-26T23:31:35.736Z,75.84
2022-10-26T23:34:41.146Z,75.92
2022-10-26T23:37:46.662Z,75.91
2022-10-26T23:40:53.848Z,75.98
2022-10-26T23:43:59.429Z,75.96
2022-10-26T23:47:04.839Z,75.96
2022-10-26T23:50:11.275Z,76.07
2022-10-26T23:53:19.354Z,76.13
2022-10-26T23:56:24.811Z,76.23
2022-10-26T23:59:30.302Z,76.37
